sensor_id;sensor_type;location;lat;lon;timestamp;pressure;altitude;pressure_sealevel;temperature;humidity
35519;BME280;21627;48.216;16.482;2023-06-26T00:00:28;99858.53;;;17.86;100.00
35519;BME280;21627;48.216;16.482;2023-06-26T00:02:55;99855.16;;;17.83;100.00
35519;BME280;21627;48.216;16.482;2023-06-26T00:05:22;99860.50;;;17.80;100.00
35519;BME280;21627;48.216;16.482;2023-06-26T00:07:49;99862.28;;;17.76;100.00
35519;BME280;21627;48.216;16.482;2023-06-26T00:10:16;99865.81;;;17.75;100.00
35519;BME280;21627;48.216;16.482;2023-06-26T00:12:43;99863.38;;;17.69;100.00
35519;BME280;21627;48.216;16.482;2023-06-26T00:15:10;99859.84;;;17.70;100.00
35519;BME280;21627;48.216;16.482;2023-06-26T00:17:38;99870.41;;;17.67;100.00
35519;BME280;21627;48.216;16.482;2023-06-26T00:20:06;99875.66;;;17.65;100.00
35519;BME280;21627;48.216;16.482;2023-06-26T00:22:34;99871.38;;;17.63;100.00
35519;BME280;21627;48.216;16.482;2023-06-26T00:25:01;99873.13;;;17.62;100.00
35519;BME280;21627;48.216;16.482;2023-06-26T00:27:29;99871.47;;;17.60;100.00
35519;BME280;21627;48.216;16.482;2023-06-26T00:29:56;99870.63;;;17.58;100.00
35519;BME280;21627;48.216;16.482;2023-06-26T00:32:23;99869.78;;;17.57;100.00
35519;BME280;21627;48.216;16.482;2023-06-26T00:34:50;99864.69;;;17.51;100.00
35519;BME280;21627;48.216;16.482;2023-06-26T00:37:19;99871.66;;;17.52;100.00
35519;BME280;21627;48.216;16.482;2023-06-26T00:39:46;99865.59;;;17.51;100.00
35519;BME280;21627;48.216;16.482;2023-06-26T00:42:13;99865.63;;;17.48;100.00
35519;BME280;21627;48.216;16.482;2023-06-26T00:44:40;99859.63;;;17.46;100.00
35519;BME280;21627;48.216;16.482;2023-06-26T00:47:08;99868.34;;;17.45;100.00
35519;BME280;21627;48.216;16.482;2023-06-26T00:49:36;99867.56;;;17.42;100.00
35519;BME280;21627;48.216;16.482;2023-06-26T00:52:04;99864.13;;;17.40;100.00
35519;BME280;21627;48.216;16.482;2023-06-26T00:54:31;99861.56;;;17.38;100.00
35519;BME280;21627;48.216;16.482;2023-06-26T00:56:58;99863.38;;;17.36;100.00
35519;BME280;21627;48.216;16.482;2023-06-26T00:59:26;99861.66;;;17.35;100.00
35519;BME280;21627;48.216;16.482;2023-06-26T01:01:53;99859.94;;;17.34;100.00
35519;BME280;21627;48.216;16.482;2023-06-26T01:04:20;99859.13;;;17.32;100.00
35519;BME280;21627;48.216;16.482;2023-06-26T01:06:48;99850.47;;;17.28;100.00
35519;BME280;21627;48.216;16.482;2023-06-26T01:09:19;99855.75;;;17.27;100.00
35519;BME280;21627;48.216;16.482;2023-06-26T01:11:47;99846.34;;;17.21;100.00
35519;BME280;21627;48.216;16.482;2023-06-26T01:14:14;99844.59;;;17.20;100.00
35519;BME280;21627;48.216;16.482;2023-06-26T01:16:43;99837.78;;;17.15;100.00
35519;BME280;21627;48.216;16.482;2023-06-26T01:19:24;99845.59;;;17.16;100.00
35519;BME280;21627;48.216;16.482;2023-06-26T01:22:34;99850.88;;;17.13;100.00
35519;BME280;21627;48.216;16.482;2023-06-26T01:25:41;99842.19;;;17.13;100.00
35519;BME280;21627;48.216;16.482;2023-06-26T01:28:11;99841.44;;;17.07;100.00
35519;BME280;21627;48.216;16.482;2023-06-26T01:30:44;99841.44;;;17.07;100.00
35519;BME280;21627;48.216;16.482;2023-06-26T01:33:12;99838.84;;;17.07;100.00
35519;BME280;21627;48.216;16.482;2023-06-26T01:35:40;99840.63;;;17.05;100.00
35519;BME280;21627;48.216;16.482;2023-06-26T01:38:17;99839.94;;;16.99;100.00
35519;BME280;21627;48.216;16.482;2023-06-26T01:40:44;99839.03;;;17.00;100.00
35519;BME280;21627;48.216;16.482;2023-06-26T01:46:16;99831.34;;;16.94;100.00
35519;BME280;21627;48.216;16.482;2023-06-26T01:51:41;99834.94;;;16.90;100.00
35519;BME280;21627;48.216;16.482;2023-06-26T01:54:12;99834.09;;;16.87;100.00
35519;BME280;21627;48.216;16.482;2023-06-26T01:56:42;99824.66;;;16.83;100.00
35519;BME280;21627;48.216;16.482;2023-06-26T01:59:12;99822.09;;;16.80;100.00
35519;BME280;21627;48.216;16.482;2023-06-26T02:01:40;99819.56;;;16.76;100.00
35519;BME280;21627;48.216;16.482;2023-06-26T02:04:08;99826.50;;;16.78;100.00
35519;BME280;21627;48.216;16.482;2023-06-26T02:06:35;99817.00;;;16.74;100.00
35519;BME280;21627;48.216;16.482;2023-06-26T02:09:02;99820.44;;;16.75;100.00
35519;BME280;21627;48.216;16.482;2023-06-26T02:11:30;99826.59;;;16.72;100.00
35519;BME280;21627;48.216;16.482;2023-06-26T02:13:57;99820.50;;;16.73;100.00
35519;BME280;21627;48.216;16.482;2023-06-26T02:16:24;99819.63;;;16.73;100.00
35519;BME280;21627;48.216;16.482;2023-06-26T02:18:51;99811.03;;;16.67;100.00
35519;BME280;21627;48.216;16.482;2023-06-26T02:21:18;99809.38;;;16.65;100.00
35519;BME280;21627;48.216;16.482;2023-06-26T02:23:45;99826.69;;;16.69;100.00
35519;BME280;21627;48.216;16.482;2023-06-26T02:26:12;99820.63;;;16.69;100.00
35519;BME280;21627;48.216;16.482;2023-06-26T02:28:40;99821.47;;;16.69;100.00
35519;BME280;21627;48.216;16.482;2023-06-26T02:31:07;99818.88;;;16.67;100.00
35519;BME280;21627;48.216;16.482;2023-06-26T02:33:34;99818.03;;;16.67;100.00
35519;BME280;21627;48.216;16.482;2023-06-26T02:36:01;99832.00;;;16.66;100.00
35519;BME280;21627;48.216;16.482;2023-06-26T02:38:28;99832.03;;;16.63;100.00
35519;BME280;21627;48.216;16.482;2023-06-26T02:40:55;99824.09;;;16.67;100.00
35519;BME280;21627;48.216;16.482;2023-06-26T02:43:23;99828.47;;;16.67;100.00
35519;BME280;21627;48.216;16.482;2023-06-26T02:45:50;99831.09;;;16.67;100.00
35519;BME280;21627;48.216;16.482;2023-06-26T02:48:17;99832.00;;;16.64;100.00
35519;BME280;21627;48.216;16.482;2023-06-26T02:50:44;99834.72;;;16.61;100.00
35519;BME280;21627;48.216;16.482;2023-06-26T02:53:13;99829.50;;;16.60;100.00
35519;BME280;21627;48.216;16.482;2023-06-26T02:55:40;99836.50;;;16.59;100.00
35519;BME280;21627;48.216;16.482;2023-06-26T02:58:07;99846.94;;;16.59;100.00
35519;BME280;21627;48.216;16.482;2023-06-26T03:00:37;99827.94;;;16.53;100.00
35519;BME280;21627;48.216;16.482;2023-06-26T03:03:08;99833.97;;;16.55;100.00
35519;BME280;21627;48.216;16.482;2023-06-26T03:05:35;99831.47;;;16.50;100.00
35519;BME280;21627;48.216;16.482;2023-06-26T03:08:03;99840.13;;;16.52;100.00
35519;BME280;21627;48.216;16.482;2023-06-26T03:10:30;99843.66;;;16.51;100.00
35519;BME280;21627;48.216;16.482;2023-06-26T03:12:57;99839.34;;;16.49;100.00
35519;BME280;21627;48.216;16.482;2023-06-26T03:15:24;99836.75;;;16.47;100.00
35519;BME280;21627;48.216;16.482;2023-06-26T03:17:51;99841.13;;;16.48;100.00
35519;BME280;21627;48.216;16.482;2023-06-26T03:20:19;99835.91;;;16.47;100.00
35519;BME280;21627;48.216;16.482;2023-06-26T03:22:46;99835.94;;;16.45;100.00
35519;BME280;21627;48.216;16.482;2023-06-26T03:25:13;99842.91;;;16.46;100.00
35519;BME280;21627;48.216;16.482;2023-06-26T03:27:40;99837.69;;;16.44;100.00
35519;BME280;21627;48.216;16.482;2023-06-26T03:30:08;99842.00;;;16.47;100.00
35519;BME280;21627;48.216;16.482;2023-06-26T03:32:35;99846.34;;;16.47;100.00
35519;BME280;21627;48.216;16.482;2023-06-26T03:35:02;99840.38;;;16.41;100.00
35519;BME280;21627;48.216;16.482;2023-06-26T03:37:33;99848.09;;;16.46;100.00
35519;BME280;21627;48.216;16.482;2023-06-26T03:40:00;99848.19;;;16.43;100.00
35519;BME280;21627;48.216;16.482;2023-06-26T03:42:27;99853.34;;;16.46;100.00
35519;BME280;21627;48.216;16.482;2023-06-26T03:44:54;99847.31;;;16.42;100.00
35519;BME280;21627;48.216;16.482;2023-06-26T03:47:21;99859.41;;;16.47;100.00
35519;BME280;21627;48.216;16.482;2023-06-26T03:49:48;99862.84;;;16.49;100.00
35519;BME280;21627;48.216;16.482;2023-06-26T03:52:15;99861.09;;;16.49;100.00
35519;BME280;21627;48.216;16.482;2023-06-26T03:54:42;99857.53;;;16.52;100.00
35519;BME280;21627;48.216;16.482;2023-06-26T03:57:10;99852.41;;;16.49;100.00
35519;BME280;21627;48.216;16.482;2023-06-26T03:59:37;99861.88;;;16.53;100.00
35519;BME280;21627;48.216;16.482;2023-06-26T04:02:04;99861.88;;;16.53;100.00
35519;BME280;21627;48.216;16.482;2023-06-26T04:04:32;99865.31;;;16.55;100.00
35519;BME280;21627;48.216;16.482;2023-06-26T04:06:59;99869.66;;;16.54;100.00
35519;BME280;21627;48.216;16.482;2023-06-26T04:09:26;99863.53;;;16.57;100.00
35519;BME280;21627;48.216;16.482;2023-06-26T04:11:54;99860.09;;;16.55;100.00
35519;BME280;21627;48.216;16.482;2023-06-26T04:14:21;99859.16;;;16.57;100.00
35519;BME280;21627;48.216;16.482;2023-06-26T04:16:48;99858.22;;;16.60;100.00
35519;BME280;21627;48.216;16.482;2023-06-26T04:19:15;99864.25;;;16.63;100.00
35519;BME280;21627;48.216;16.482;2023-06-26T04:21:42;99871.09;;;16.67;100.00
35519;BME280;21627;48.216;16.482;2023-06-26T04:24:09;99859.81;;;16.65;100.00
35519;BME280;21627;48.216;16.482;2023-06-26T04:26:38;99862.38;;;16.69;100.00
35519;BME280;21627;48.216;16.482;2023-06-26T04:29:09;99863.09;;;16.75;100.00
35519;BME280;21627;48.216;16.482;2023-06-26T04:31:36;99873.47;;;16.80;100.00
35519;BME280;21627;48.216;16.482;2023-06-26T04:34:04;99868.13;;;16.84;100.00
35519;BME280;21627;48.216;16.482;2023-06-26T04:36:31;99863.69;;;16.88;100.00
35519;BME280;21627;48.216;16.482;2023-06-26T04:39:00;99856.66;;;16.90;100.00
35519;BME280;21627;48.216;16.482;2023-06-26T04:41:27;99861.75;;;16.96;100.00
35519;BME280;21627;48.216;16.482;2023-06-26T04:43:54;99864.28;;;16.99;100.00
35519;BME280;21627;48.216;16.482;2023-06-26T04:46:21;99864.19;;;17.04;100.00
35519;BME280;21627;48.216;16.482;2023-06-26T04:48:48;99866.72;;;17.07;100.00
35519;BME280;21627;48.216;16.482;2023-06-26T04:51:16;99861.41;;;17.10;100.00
35519;BME280;21627;48.216;16.482;2023-06-26T04:53:43;99865.69;;;17.13;100.00
35519;BME280;21627;48.216;16.482;2023-06-26T04:56:10;99871.75;;;17.15;100.00
35519;BME280;21627;48.216;16.482;2023-06-26T04:58:38;99874.19;;;17.21;100.00
35519;BME280;21627;48.216;16.482;2023-06-26T05:01:05;99873.16;;;17.28;100.00
35519;BME280;21627;48.216;16.482;2023-06-26T05:03:33;99877.44;;;17.30;100.00
35519;BME280;21627;48.216;16.482;2023-06-26T05:06:01;99871.16;;;17.38;100.00
35519;BME280;21627;48.216;16.482;2023-06-26T05:08:35;99871.03;;;17.44;100.00
35519;BME280;21627;48.216;16.482;2023-06-26T05:11:02;99878.69;;;17.50;100.00
35519;BME280;21627;48.216;16.482;2023-06-26T05:13:29;99873.34;;;17.55;100.00
35519;BME280;21627;48.216;16.482;2023-06-26T05:15:56;99877.50;;;17.62;100.00
35519;BME280;21627;48.216;16.482;2023-06-26T05:18:23;99876.38;;;17.70;100.00
35519;BME280;21627;48.216;16.482;2023-06-26T05:20:51;99870.88;;;17.81;100.00
35519;BME280;21627;48.216;16.482;2023-06-26T05:23:18;99875.88;;;17.90;100.00
35519;BME280;21627;48.216;16.482;2023-06-26T05:25:46;99872.28;;;17.94;100.00
35519;BME280;21627;48.216;16.482;2023-06-26T05:28:14;99876.56;;;17.97;100.00
35519;BME280;21627;48.216;16.482;2023-06-26T05:30:42;99875.34;;;18.09;100.00
35519;BME280;21627;48.216;16.482;2023-06-26T05:33:11;99878.66;;;18.15;100.00
35519;BME280;21627;48.216;16.482;2023-06-26T05:35:40;99878.56;;;18.19;100.00
35519;BME280;21627;48.216;16.482;2023-06-26T05:38:08;99877.50;;;18.24;100.00
35519;BME280;21627;48.216;16.482;2023-06-26T05:40:35;99875.44;;;18.35;100.00
35519;BME280;21627;48.216;16.482;2023-06-26T05:43:03;99878.75;;;18.42;100.00
35519;BME280;21627;48.216;16.482;2023-06-26T05:45:31;99875.94;;;18.48;100.00
35519;BME280;21627;48.216;16.482;2023-06-26T05:47:58;99880.13;;;18.54;100.00
35519;BME280;21627;48.216;16.482;2023-06-26T05:50:26;99877.13;;;18.66;100.00
35519;BME280;21627;48.216;16.482;2023-06-26T05:52:54;99880.34;;;18.74;100.00
35519;BME280;21627;48.216;16.482;2023-06-26T05:55:21;99879.19;;;18.85;100.00
35519;BME280;21627;48.216;16.482;2023-06-26T05:57:50;99878.22;;;18.87;100.00
35519;BME280;21627;48.216;16.482;2023-06-26T06:00:18;99884.09;;;18.95;100.00
35519;BME280;21627;48.216;16.482;2023-06-26T06:02:45;99873.47;;;19.00;100.00
35519;BME280;21627;48.216;16.482;2023-06-26T06:05:13;99881.94;;;19.08;100.00
35519;BME280;21627;48.216;16.482;2023-06-26T06:07:40;99880.75;;;19.17;100.00
35519;BME280;21627;48.216;16.482;2023-06-26T06:10:07;99883.00;;;19.28;100.00
35519;BME280;21627;48.216;16.482;2023-06-26T06:12:35;99869.00;;;19.29;100.00
35519;BME280;21627;48.216;16.482;2023-06-26T06:15:02;99868.06;;;19.31;100.00
35519;BME280;21627;48.216;16.482;2023-06-26T06:17:29;99870.38;;;19.40;100.00
35519;BME280;21627;48.216;16.482;2023-06-26T06:19:56;99878.00;;;19.46;100.00
35519;BME280;21627;48.216;16.482;2023-06-26T06:22:23;99876.13;;;19.50;100.00
35519;BME280;21627;48.216;16.482;2023-06-26T06:24:50;99870.44;;;19.62;100.00
35519;BME280;21627;48.216;16.482;2023-06-26T06:27:18;99867.75;;;19.65;100.00
35519;BME280;21627;48.216;16.482;2023-06-26T06:29:45;99877.88;;;19.76;100.00
35519;BME280;21627;48.216;16.482;2023-06-26T06:32:12;99874.81;;;19.88;100.00
35519;BME280;21627;48.216;16.482;2023-06-26T06:34:40;99866.72;;;19.95;100.00
35519;BME280;21627;48.216;16.482;2023-06-26T06:37:07;99875.09;;;20.04;100.00
35519;BME280;21627;48.216;16.482;2023-06-26T06:39:34;99877.41;;;20.14;100.00
35519;BME280;21627;48.216;16.482;2023-06-26T06:42:01;99875.63;;;20.14;100.00
35519;BME280;21627;48.216;16.482;2023-06-26T06:44:28;99883.13;;;20.23;100.00
35519;BME280;21627;48.216;16.482;2023-06-26T06:46:58;99878.38;;;20.33;100.00
35519;BME280;21627;48.216;16.482;2023-06-26T06:49:25;99878.72;;;20.47;100.00
35519;BME280;21627;48.216;16.482;2023-06-26T06:51:52;99875.56;;;20.61;100.00
35519;BME280;21627;48.216;16.482;2023-06-26T06:54:19;99873.53;;;20.69;97.94
35519;BME280;21627;48.216;16.482;2023-06-26T06:56:46;99871.44;;;20.78;99.01
35519;BME280;21627;48.216;16.482;2023-06-26T06:59:13;99871.97;;;20.86;97.46
35519;BME280;21627;48.216;16.482;2023-06-26T07:01:40;99881.00;;;21.01;99.32
35519;BME280;21627;48.216;16.482;2023-06-26T07:04:08;99879.00;;;21.07;97.17
35519;BME280;21627;48.216;16.482;2023-06-26T07:06:35;99881.13;;;21.20;96.72
35519;BME280;21627;48.216;16.482;2023-06-26T07:09:02;99870.59;;;21.20;96.35
35519;BME280;21627;48.216;16.482;2023-06-26T07:11:30;99874.66;;;21.27;89.39
35519;BME280;21627;48.216;16.482;2023-06-26T07:13:57;99875.22;;;21.35;89.71
35519;BME280;21627;48.216;16.482;2023-06-26T07:16:24;99870.84;;;21.34;85.23
35519;BME280;21627;48.216;16.482;2023-06-26T07:18:51;99877.59;;;21.41;84.68
35519;BME280;21627;48.216;16.482;2023-06-26T07:21:19;99874.78;;;21.46;85.62
35519;BME280;21627;48.216;16.482;2023-06-26T07:23:46;99875.31;;;21.54;87.38
35519;BME280;21627;48.216;16.482;2023-06-26T07:26:14;99873.28;;;21.60;85.28
35519;BME280;21627;48.216;16.482;2023-06-26T07:28:42;99882.28;;;21.75;83.62
35519;BME280;21627;48.216;16.482;2023-06-26T07:31:09;99880.28;;;21.80;83.36
35519;BME280;21627;48.216;16.482;2023-06-26T07:33:36;99877.22;;;21.90;79.97
35519;BME280;21627;48.216;16.482;2023-06-26T07:36:04;99883.22;;;21.93;80.33
35519;BME280;21627;48.216;16.482;2023-06-26T07:38:31;99878.31;;;22.04;81.43
35519;BME280;21627;48.216;16.482;2023-06-26T07:40:58;99881.75;;;22.07;78.18
35519;BME280;21627;48.216;16.482;2023-06-26T07:43:25;99871.06;;;22.10;78.93
35519;BME280;21627;48.216;16.482;2023-06-26T07:45:52;99881.00;;;22.23;74.19
35519;BME280;21627;48.216;16.482;2023-06-26T07:48:20;99871.56;;;22.38;79.01
35519;BME280;21627;48.216;16.482;2023-06-26T07:50:47;99877.38;;;22.45;80.97
35519;BME280;21627;48.216;16.482;2023-06-26T07:53:14;99873.25;;;22.58;79.21
35519;BME280;21627;48.216;16.482;2023-06-26T07:55:42;99879.47;;;22.75;78.99
35519;BME280;21627;48.216;16.482;2023-06-26T07:58:09;99880.47;;;22.72;73.59
35519;BME280;21627;48.216;16.482;2023-06-26T08:00:36;99879.25;;;22.79;77.72
35519;BME280;21627;48.216;16.482;2023-06-26T08:03:04;99875.47;;;22.85;75.08
35519;BME280;21627;48.216;16.482;2023-06-26T08:05:34;99872.59;;;22.89;73.83
35519;BME280;21627;48.216;16.482;2023-06-26T08:08:02;99878.44;;;22.96;72.88
35519;BME280;21627;48.216;16.482;2023-06-26T08:10:30;99883.28;;;23.05;73.86
35519;BME280;21627;48.216;16.482;2023-06-26T08:12:57;99873.84;;;23.19;70.02
35519;BME280;21627;48.216;16.482;2023-06-26T08:15:25;99874.25;;;23.28;69.31
35519;BME280;21627;48.216;16.482;2023-06-26T08:17:52;99868.56;;;23.36;69.50
35519;BME280;21627;48.216;16.482;2023-06-26T08:20:19;99870.03;;;23.42;71.54
35519;BME280;21627;48.216;16.482;2023-06-26T08:22:47;99870.88;;;23.42;70.05
35519;BME280;21627;48.216;16.482;2023-06-26T08:25:16;99871.16;;;23.53;71.73
35519;BME280;21627;48.216;16.482;2023-06-26T08:27:43;99880.84;;;23.70;72.97
35519;BME280;21627;48.216;16.482;2023-06-26T08:30:10;99878.78;;;23.77;67.89
35519;BME280;21627;48.216;16.482;2023-06-26T08:32:37;99871.56;;;23.81;66.24
35519;BME280;21627;48.216;16.482;2023-06-26T08:35:06;99874.63;;;23.89;65.67
35519;BME280;21627;48.216;16.482;2023-06-26T08:37:33;99869.81;;;23.97;65.49
35519;BME280;21627;48.216;16.482;2023-06-26T08:40:00;99871.94;;;24.06;64.63
35519;BME280;21627;48.216;16.482;2023-06-26T08:42:28;99874.09;;;24.15;65.22
35519;BME280;21627;48.216;16.482;2023-06-26T08:44:55;99858.59;;;24.09;64.97
35519;BME280;21627;48.216;16.482;2023-06-26T08:47:30;99869.41;;;24.21;67.49
35519;BME280;21627;48.216;16.482;2023-06-26T08:50:08;99865.44;;;24.29;67.32
35519;BME280;21627;48.216;16.482;2023-06-26T08:52:49;99865.16;;;24.34;66.77
35519;BME280;21627;48.216;16.482;2023-06-26T08:55:21;99859.16;;;24.48;68.02
35519;BME280;21627;48.216;16.482;2023-06-26T08:57:51;99858.53;;;24.58;62.66
35519;BME280;21627;48.216;16.482;2023-06-26T09:00:20;99853.84;;;24.64;62.26
35519;BME280;21627;48.216;16.482;2023-06-26T09:02:47;99848.66;;;24.62;63.55
35519;BME280;21627;48.216;16.482;2023-06-26T09:05:15;99858.69;;;24.71;64.67
35519;BME280;21627;48.216;16.482;2023-06-26T09:07:42;99854.84;;;24.77;65.15
35519;BME280;21627;48.216;16.482;2023-06-26T09:10:10;99856.63;;;24.92;61.83
35519;BME280;21627;48.216;16.482;2023-06-26T09:12:38;99852.09;;;24.94;60.90
35519;BME280;21627;48.216;16.482;2023-06-26T09:15:06;99844.47;;;25.04;62.29
35519;BME280;21627;48.216;16.482;2023-06-26T09:17:39;99843.78;;;25.16;63.26
35519;BME280;21627;48.216;16.482;2023-06-26T09:20:08;99844.44;;;25.20;63.99
35519;BME280;21627;48.216;16.482;2023-06-26T09:22:37;99837.38;;;25.20;61.51
35519;BME280;21627;48.216;16.482;2023-06-26T09:25:08;99833.69;;;25.37;60.85
35519;BME280;21627;48.216;16.482;2023-06-26T09:27:36;99833.69;;;25.37;61.32
35519;BME280;21627;48.216;16.482;2023-06-26T09:30:04;99821.50;;;25.35;62.38
35519;BME280;21627;48.216;16.482;2023-06-26T09:32:36;99838.25;;;25.50;62.56
35519;BME280;21627;48.216;16.482;2023-06-26T09:35:04;99841.97;;;25.76;59.69
35519;BME280;21627;48.216;16.482;2023-06-26T09:37:32;99842.72;;;25.78;59.72
35519;BME280;21627;48.216;16.482;2023-06-26T09:40:01;99830.34;;;25.78;58.53
35519;BME280;21627;48.216;16.482;2023-06-26T09:42:29;99836.97;;;25.71;57.85
35519;BME280;21627;48.216;16.482;2023-06-26T09:44:56;99823.44;;;25.76;58.93
35519;BME280;21627;48.216;16.482;2023-06-26T09:47:24;99817.59;;;25.85;60.02
35519;BME280;21627;48.216;16.482;2023-06-26T09:49:51;99825.13;;;26.05;59.85
35519;BME280;21627;48.216;16.482;2023-06-26T09:52:19;99826.25;;;26.16;57.93
35519;BME280;21627;48.216;16.482;2023-06-26T09:54:46;99817.25;;;26.18;60.72
35519;BME280;21627;48.216;16.482;2023-06-26T09:57:17;99830.09;;;26.39;59.63
35519;BME280;21627;48.216;16.482;2023-06-26T09:59:45;99826.19;;;26.44;59.01
35519;BME280;21627;48.216;16.482;2023-06-26T10:02:12;99820.41;;;26.52;58.94
35519;BME280;21627;48.216;16.482;2023-06-26T10:04:40;99824.09;;;26.64;54.42
35519;BME280;21627;48.216;16.482;2023-06-26T10:07:11;99825.78;;;26.65;54.09
35519;BME280;21627;48.216;16.482;2023-06-26T10:09:44;99824.63;;;26.69;54.75
35519;BME280;21627;48.216;16.482;2023-06-26T10:12:29;99819.34;;;26.69;54.18
35519;BME280;21627;48.216;16.482;2023-06-26T10:14:58;99812.22;;;26.69;52.80
35519;BME280;21627;48.216;16.482;2023-06-26T10:17:34;99811.41;;;26.82;59.51
35519;BME280;21627;48.216;16.482;2023-06-26T10:20:03;99805.47;;;26.91;56.41
35519;BME280;21627;48.216;16.482;2023-06-26T10:22:45;99805.69;;;26.88;52.46
35519;BME280;21627;48.216;16.482;2023-06-26T10:25:18;99807.72;;;26.97;54.41
35519;BME280;21627;48.216;16.482;2023-06-26T10:27:56;99801.59;;;27.09;54.21
35519;BME280;21627;48.216;16.482;2023-06-26T10:30:27;99796.28;;;27.09;50.93
35519;BME280;21627;48.216;16.482;2023-06-26T10:32:56;99787.19;;;27.26;55.63
35519;BME280;21627;48.216;16.482;2023-06-26T10:35:24;99796.66;;;27.30;55.12
35519;BME280;21627;48.216;16.482;2023-06-26T10:37:52;99791.88;;;27.23;53.73
35519;BME280;21627;48.216;16.482;2023-06-26T10:40:27;99793.69;;;27.35;54.58
35519;BME280;21627;48.216;16.482;2023-06-26T10:43:09;99788.78;;;27.41;54.83
35519;BME280;21627;48.216;16.482;2023-06-26T10:45:38;99776.59;;;27.52;52.29
35519;BME280;21627;48.216;16.482;2023-06-26T10:48:09;99789.81;;;27.77;52.89
35519;BME280;21627;48.216;16.482;2023-06-26T10:50:39;99788.47;;;27.85;50.13
35519;BME280;21627;48.216;16.482;2023-06-26T10:56:02;99776.66;;;27.89;51.08
35519;BME280;21627;48.216;16.482;2023-06-26T11:01:19;99776.97;;;28.21;52.06
35519;BME280;21627;48.216;16.482;2023-06-26T11:04:08;99774.41;;;28.19;49.87
35519;BME280;21627;48.216;16.482;2023-06-26T11:06:38;99771.16;;;28.16;48.62
35519;BME280;21627;48.216;16.482;2023-06-26T11:09:08;99788.63;;;28.31;54.01
35519;BME280;21627;48.216;16.482;2023-06-26T11:14:23;99773.91;;;28.51;50.65
35519;BME280;21627;48.216;16.482;2023-06-26T11:16:51;99776.50;;;28.64;49.98
35519;BME280;21627;48.216;16.482;2023-06-26T11:19:19;99771.06;;;28.65;47.64
35519;BME280;21627;48.216;16.482;2023-06-26T11:21:50;99766.44;;;28.67;49.03
35519;BME280;21627;48.216;16.482;2023-06-26T11:24:18;99763.84;;;28.79;47.22
35519;BME280;21627;48.216;16.482;2023-06-26T11:26:45;99763.72;;;28.80;50.06
35519;BME280;21627;48.216;16.482;2023-06-26T11:29:13;99765.44;;;28.81;50.54
35519;BME280;21627;48.216;16.482;2023-06-26T11:31:41;99767.50;;;28.89;51.27
35519;BME280;21627;48.216;16.482;2023-06-26T11:34:11;99766.97;;;29.08;50.44
35519;BME280;21627;48.216;16.482;2023-06-26T11:36:43;99772.22;;;29.21;50.94
35519;BME280;21627;48.216;16.482;2023-06-26T11:39:13;99771.59;;;29.17;45.40
35519;BME280;21627;48.216;16.482;2023-06-26T11:41:41;99768.47;;;29.23;47.73
35519;BME280;21627;48.216;16.482;2023-06-26T11:44:10;99767.88;;;29.31;47.77
35519;BME280;21627;48.216;16.482;2023-06-26T11:46:38;99767.97;;;29.29;47.15
35519;BME280;21627;48.216;16.482;2023-06-26T11:49:08;99762.53;;;29.42;50.09
35519;BME280;21627;48.216;16.482;2023-06-26T11:51:36;99752.88;;;29.41;49.93
35519;BME280;21627;48.216;16.482;2023-06-26T11:54:04;99755.75;;;29.38;47.27
35519;BME280;21627;48.216;16.482;2023-06-26T11:56:32;99759.50;;;29.58;49.06
35519;BME280;21627;48.216;16.482;2023-06-26T11:59:04;99752.66;;;29.67;47.63
35519;BME280;21627;48.216;16.482;2023-06-26T12:01:44;99750.47;;;29.72;49.27
35519;BME280;21627;48.216;16.482;2023-06-26T12:04:14;99753.84;;;29.74;48.45
35519;BME280;21627;48.216;16.482;2023-06-26T12:06:46;99753.47;;;29.79;52.54
35519;BME280;21627;48.216;16.482;2023-06-26T12:09:18;99746.78;;;29.95;47.37
35519;BME280;21627;48.216;16.482;2023-06-26T12:11:49;99736.00;;;29.97;50.77
35519;BME280;21627;48.216;16.482;2023-06-26T12:14:20;99736.13;;;29.95;46.78
35519;BME280;21627;48.216;16.482;2023-06-26T12:16:49;99733.81;;;29.91;46.08
35519;BME280;21627;48.216;16.482;2023-06-26T12:19:16;99729.44;;;30.01;50.86
35519;BME280;21627;48.216;16.482;2023-06-26T12:21:45;99728.44;;;30.13;47.30
35519;BME280;21627;48.216;16.482;2023-06-26T12:24:17;99728.06;;;30.18;49.32
35519;BME280;21627;48.216;16.482;2023-06-26T12:26:47;99729.88;;;30.29;47.98
35519;BME280;21627;48.216;16.482;2023-06-26T12:29:18;99723.13;;;30.46;49.96
35519;BME280;21627;48.216;16.482;2023-06-26T12:31:50;99728.66;;;30.54;47.57
35519;BME280;21627;48.216;16.482;2023-06-26T12:34:32;99728.84;;;30.41;46.93
35519;BME280;21627;48.216;16.482;2023-06-26T12:37:02;99717.03;;;30.55;47.43
35519;BME280;21627;48.216;16.482;2023-06-26T12:39:30;99716.38;;;30.62;45.51
35519;BME280;21627;48.216;16.482;2023-06-26T12:42:15;99719.38;;;30.69;44.78
35519;BME280;21627;48.216;16.482;2023-06-26T12:44:42;99707.84;;;30.69;46.23
35519;BME280;21627;48.216;16.482;2023-06-26T12:47:10;99712.91;;;30.83;44.77
35519;BME280;21627;48.216;16.482;2023-06-26T12:49:42;99708.59;;;30.92;42.68
35519;BME280;21627;48.216;16.482;2023-06-26T12:52:15;99707.44;;;30.85;45.05
35519;BME280;21627;48.216;16.482;2023-06-26T12:54:43;99704.50;;;30.88;46.47
35519;BME280;21627;48.216;16.482;2023-06-26T12:57:10;99701.25;;;30.84;45.85
35519;BME280;21627;48.216;16.482;2023-06-26T12:59:38;99707.94;;;30.99;44.73
35519;BME280;21627;48.216;16.482;2023-06-26T13:02:06;99707.75;;;31.12;43.09
35519;BME280;21627;48.216;16.482;2023-06-26T13:04:33;99712.81;;;30.94;43.23
35519;BME280;21627;48.216;16.482;2023-06-26T13:07:00;99709.88;;;30.76;45.54